createdAt,value
2022-11-16T00:01:42.746Z,12.85
2022-11-16T00:04:12.535Z,12.95
2022-11-16T00:06:40.975Z,13.00
2022-11-16T00:09:24.200Z,12.95
2022-11-16T00:11:53.205Z,12.97
2022-11-16T00:14:22.094Z,12.87
2022-11-16T00:16:50.369Z,12.91
2022-11-16T00:19:18.683Z,12.88
2022-11-16T00:21:46.791Z,12.85
2022-11-16T00:24:20.783Z,12.78
2022-11-16T00:26:50.293Z,12.78
2022-11-16T00:29:20.356Z,12.85
2022-11-16T00:31:48.973Z,12.84
2022-11-16T00:34:17.263Z,12.86
2022-11-16T00:36:45.230Z,12.91
2022-11-16T00:39:13.710Z,12.91
2022-11-16T00:41:43.526Z,12.82
2022-11-16T00:44:13.341Z,12.76
2022-11-16T00:46:41.166Z,12.72
2022-11-16T00:49:09.668Z,12.73
2022-11-16T00:51:38.459Z,12.79
2022-11-16T00:54:07.679Z,12.79
2022-11-16T00:56:35.514Z,12.75
2022-11-16T00:59:04.735Z,12.78
2022-11-16T01:01:32.372Z,12.78
2022-11-16T01:04:00.079Z,12.79
2022-11-16T01:06:27.730Z,12.76
2022-11-16T01:08:55.397Z,12.71
2022-11-16T01:11:40.791Z,12.72
2022-11-16T01:14:10.795Z,12.72
2022-11-16T01:16:38.456Z,12.70
2022-11-16T01:19:06.640Z,12.70
2022-11-16T01:21:35.202Z,12.74
2022-11-16T01:24:03.182Z,12.72
2022-11-16T01:26:30.902Z,12.79
2022-11-16T01:28:59.564Z,12.77
2022-11-16T01:31:28.519Z,12.70
2022-11-16T01:33:56.303Z,12.68
2022-11-16T01:36:24.089Z,12.67
2022-11-16T01:38:51.822Z,12.75
2022-11-16T01:41:21.463Z,12.76
2022-11-16T01:43:59.312Z,12.79
2022-11-16T01:46:31.629Z,12.77
2022-11-16T01:49:04.264Z,12.78
2022-11-16T01:51:32.945Z,12.77
2022-11-16T01:54:03.560Z,12.80
2022-11-16T01:56:33.091Z,12.80
2022-11-16T01:59:00.841Z,12.77
2022-11-16T02:01:29.845Z,12.74
2022-11-16T02:03:57.624Z,12.73
2022-11-16T02:06:33.677Z,12.72
2022-11-16T02:09:34.914Z,12.68
2022-11-16T02:12:13.931Z,12.67
2022-11-16T02:14:56.789Z,12.68
2022-11-16T02:17:33.836Z,12.68
2022-11-16T02:20:34.492Z,12.67
2022-11-16T02:23:22.521Z,12.65
2022-11-16T02:26:01.043Z,12.66
2022-11-16T02:28:41.605Z,12.66
2022-11-16T02:31:16.394Z,12.71
2022-11-16T02:33:50.024Z,12.71
2022-11-16T02:36:23.373Z,12.69
2022-11-16T02:38:55.940Z,12.78
2022-11-16T02:41:26.204Z,12.84
2022-11-16T02:44:00.992Z,12.78
2022-11-16T02:46:37.190Z,12.72
2022-11-16T02:49:10.361Z,12.70
2022-11-16T02:51:39.981Z,12.67
2022-11-16T02:54:12.703Z,12.72
2022-11-16T02:56:47.376Z,12.68
2022-11-16T02:59:17.623Z,12.66
2022-11-16T03:01:52.275Z,12.71
2022-11-16T03:04:26.386Z,12.62
2022-11-16T03:06:57.645Z,12.64
2022-11-16T03:09:29.750Z,12.64
2022-11-16T03:12:00.095Z,12.59
2022-11-16T03:14:34.115Z,12.63
2022-11-16T03:17:05.123Z,12.62
2022-11-16T03:19:37.165Z,12.68
2022-11-16T03:22:11.531Z,12.65
2022-11-16T03:24:39.900Z,12.61
2022-11-16T03:27:14.363Z,12.59
2022-11-16T03:29:47.991Z,12.62
2022-11-16T03:32:21.692Z,12.61
2022-11-16T03:34:57.741Z,12.61
2022-11-16T03:37:26.829Z,12.59
2022-11-16T03:39:55.813Z,12.61
2022-11-16T03:42:24.912Z,12.56
2022-11-16T03:44:53.397Z,12.56
2022-11-16T03:47:22.597Z,12.57
2022-11-16T03:49:50.214Z,12.61
2022-11-16T03:52:19.133Z,12.59
2022-11-16T03:54:46.745Z,12.62
2022-11-16T03:57:17.993Z,12.61
2022-11-16T03:59:46.235Z,12.59
2022-11-16T04:02:14.161Z,12.54
2022-11-16T04:05:01.218Z,12.55
2022-11-16T04:07:46.204Z,12.50
2022-11-16T04:10:31.578Z,12.52
2022-11-16T04:13:17.292Z,12.52
2022-11-16T04:16:02.641Z,12.56
2022-11-16T04:18:47.892Z,12.59
2022-11-16T04:21:39.914Z,12.57
2022-11-16T04:24:14.075Z,12.56
2022-11-16T04:27:01.638Z,12.62
2022-11-16T04:29:29.896Z,12.56
2022-11-16T04:32:15.313Z,12.56
2022-11-16T04:35:00.715Z,12.53
2022-11-16T04:37:47.367Z,12.55
2022-11-16T04:40:16.317Z,12.54
2022-11-16T04:42:44.449Z,12.52
2022-11-16T04:45:29.692Z,12.58
2022-11-16T04:47:57.353Z,12.53
2022-11-16T04:50:25.031Z,12.49
2022-11-16T04:52:54.044Z,12.46
2022-11-16T04:55:21.668Z,12.47
2022-11-16T04:57:49.375Z,12.51
2022-11-16T05:00:18.118Z,12.49
2022-11-16T05:02:46.297Z,12.47
2022-11-16T05:05:14.434Z,12.52
2022-11-16T05:07:42.297Z,12.54
2022-11-16T05:10:12.360Z,12.48
2022-11-16T05:12:40.192Z,12.40
2022-11-16T05:15:08.841Z,12.43
2022-11-16T05:17:36.744Z,12.38
2022-11-16T05:20:22.630Z,12.38
2022-11-16T05:22:54.600Z,12.34
2022-11-16T05:25:23.672Z,12.34
2022-11-16T05:27:51.326Z,12.43
2022-11-16T05:30:19.383Z,12.39
2022-11-16T05:32:47.458Z,12.38
2022-11-16T05:35:15.124Z,12.39
2022-11-16T05:37:42.688Z,12.38
2022-11-16T05:40:11.813Z,12.41
2022-11-16T05:42:40.765Z,12.38
2022-11-16T05:45:09.073Z,12.37
2022-11-16T05:47:36.707Z,12.39
2022-11-16T05:50:04.664Z,12.42
2022-11-16T05:52:32.321Z,12.39
2022-11-16T05:54:59.973Z,12.41
2022-11-16T05:57:27.540Z,12.42
2022-11-16T05:59:56.500Z,12.43
2022-11-16T06:02:24.190Z,12.41
2022-11-16T06:04:51.848Z,12.38
2022-11-16T06:07:19.518Z,12.37
2022-11-16T06:09:47.204Z,12.40
2022-11-16T06:12:14.810Z,12.40
2022-11-16T06:14:42.397Z,12.34
2022-11-16T06:17:14.451Z,12.36
2022-11-16T06:19:42.455Z,12.33
2022-11-16T06:22:10.089Z,12.34
2022-11-16T06:24:37.965Z,12.35
2022-11-16T06:27:05.563Z,12.34
2022-11-16T06:29:33.201Z,12.36
2022-11-16T06:32:00.937Z,12.37
2022-11-16T06:34:29.973Z,12.34
2022-11-16T06:36:57.633Z,12.38
2022-11-16T06:39:25.612Z,12.37
2022-11-16T06:41:53.224Z,12.43
2022-11-16T06:44:20.826Z,12.39
2022-11-16T06:46:48.515Z,12.33
2022-11-16T06:49:16.162Z,12.37
2022-11-16T06:51:45.328Z,12.37
2022-11-16T06:54:12.988Z,12.39
2022-11-16T06:56:40.604Z,12.40
2022-11-16T06:59:08.253Z,12.37
2022-11-16T07:01:36.004Z,12.37
2022-11-16T07:04:03.717Z,12.38
2022-11-16T07:06:31.554Z,12.42
2022-11-16T07:09:00.509Z,12.43
2022-11-16T07:11:28.124Z,12.41
2022-11-16T07:13:55.736Z,12.44
2022-11-16T07:16:23.350Z,12.53
2022-11-16T07:18:50.984Z,12.57
2022-11-16T07:21:18.831Z,12.59
2022-11-16T07:23:46.740Z,12.56
2022-11-16T07:26:15.724Z,12.69
2022-11-16T07:28:47.974Z,12.82
2022-11-16T07:31:16.553Z,12.97
2022-11-16T07:33:44.196Z,13.11
2022-11-16T07:36:14.004Z,13.18
2022-11-16T07:38:41.694Z,13.13
2022-11-16T07:41:11.598Z,13.13
2022-11-16T07:43:40.819Z,13.05
2022-11-16T07:48:59.127Z,12.92
2022-11-16T07:51:26.796Z,12.87
2022-11-16T07:53:56.194Z,12.87
2022-11-16T07:56:24.095Z,12.84
2022-11-16T07:58:53.158Z,12.84
2022-11-16T08:01:20.941Z,12.94
2022-11-16T08:03:48.580Z,13.00
2022-11-16T08:06:20.241Z,13.07
2022-11-16T08:08:47.850Z,13.08
2022-11-16T08:11:15.439Z,13.08
2022-11-16T08:13:43.847Z,13.10
2022-11-16T08:16:14.591Z,13.06
2022-11-16T08:18:43.043Z,13.00
2022-11-16T08:21:13.804Z,12.95
2022-11-16T08:23:41.934Z,12.99
2022-11-16T08:26:14.238Z,13.07
2022-11-16T08:28:42.998Z,13.11
2022-11-16T08:31:13.700Z,13.15
2022-11-16T08:33:41.431Z,13.23
2022-11-16T08:36:14.292Z,13.33
2022-11-16T08:38:42.289Z,13.51
2022-11-16T08:41:09.988Z,13.73
2022-11-16T08:43:39.440Z,13.94
2022-11-16T08:46:07.539Z,14.02
2022-11-16T08:48:37.645Z,14.04
2022-11-16T08:51:21.762Z,14.17
2022-11-16T08:53:49.753Z,14.25
2022-11-16T08:56:18.875Z,14.28
2022-11-16T08:58:47.232Z,14.41
2022-11-16T09:01:17.087Z,14.54
2022-11-16T09:03:47.132Z,15.45
2022-11-16T09:06:15.202Z,16.12
2022-11-16T09:08:44.765Z,16.69
2022-11-16T09:11:15.583Z,16.97
2022-11-16T09:13:43.436Z,17.03
2022-11-16T09:16:11.473Z,16.91
2022-11-16T09:18:39.093Z,16.55
2022-11-16T09:21:08.157Z,16.50
2022-11-16T09:23:35.800Z,16.23
2022-11-16T09:26:04.269Z,16.08
2022-11-16T09:28:32.583Z,15.81
2022-11-16T09:31:02.762Z,15.59
2022-11-16T09:33:31.427Z,15.53
2022-11-16T09:36:02.594Z,15.55
2022-11-16T09:38:47.485Z,15.79
2022-11-16T09:41:43.207Z,15.60
2022-11-16T09:44:25.487Z,15.32
2022-11-16T09:46:57.391Z,15.01
2022-11-16T09:49:28.167Z,14.87
2022-11-16T09:52:00.639Z,14.89
2022-11-16T09:54:38.058Z,14.94
2022-11-16T09:57:12.740Z,14.91
2022-11-16T09:59:45.568Z,14.84
2022-11-16T10:02:31.249Z,14.72
2022-11-16T10:05:04.396Z,14.60
2022-11-16T10:07:41.824Z,14.45
2022-11-16T10:10:13.962Z,14.33
2022-11-16T10:12:46.699Z,14.25
2022-11-16T10:15:30.516Z,14.16
2022-11-16T10:18:11.587Z,14.19
2022-11-16T10:20:55.007Z,14.25
2022-11-16T10:23:31.786Z,14.38
2022-11-16T10:26:12.981Z,14.44
2022-11-16T10:29:02.143Z,14.56
2022-11-16T10:31:44.319Z,14.65
2022-11-16T10:34:21.077Z,14.71
2022-11-16T10:36:48.683Z,14.77
2022-11-16T10:39:18.952Z,15.09
2022-11-16T10:41:50.298Z,16.35
2022-11-16T10:44:22.705Z,17.42
2022-11-16T10:47:01.598Z,17.72
2022-11-16T10:49:37.027Z,17.58
2022-11-16T10:52:04.850Z,17.39
2022-11-16T10:54:32.471Z,17.49
2022-11-16T10:57:05.696Z,17.43
2022-11-16T10:59:43.058Z,17.27
2022-11-16T11:02:34.621Z,16.87
2022-11-16T11:05:05.685Z,16.51
2022-11-16T11:07:35.272Z,16.16
2022-11-16T11:10:03.453Z,15.99
2022-11-16T11:12:41.190Z,16.83
2022-11-16T11:15:26.246Z,16.69
2022-11-16T11:18:13.884Z,16.33
2022-11-16T11:20:45.110Z,15.97
2022-11-16T11:23:16.803Z,15.82
2022-11-16T11:25:52.387Z,15.60
2022-11-16T11:28:25.038Z,15.39
2022-11-16T11:31:00.115Z,15.15
2022-11-16T11:33:32.243Z,15.02
2022-11-16T11:36:03.920Z,14.87
2022-11-16T11:38:32.226Z,14.75
2022-11-16T11:41:01.501Z,14.75
2022-11-16T11:43:30.868Z,14.76
2022-11-16T11:46:07.118Z,14.88
2022-11-16T11:48:42.256Z,15.05
2022-11-16T11:51:19.038Z,15.18
2022-11-16T11:53:54.371Z,15.31
2022-11-16T11:56:22.203Z,15.43
2022-11-16T11:58:51.963Z,15.52
2022-11-16T12:01:48.657Z,15.77
2022-11-16T12:04:42.818Z,15.82
2022-11-16T12:07:21.807Z,15.76
2022-11-16T12:09:58.161Z,15.67
2022-11-16T12:12:36.408Z,15.55
2022-11-16T12:15:26.994Z,15.45
2022-11-16T12:18:05.562Z,15.47
2022-11-16T12:20:43.672Z,15.42
2022-11-16T12:23:51.270Z,15.33
2022-11-16T12:26:26.163Z,15.35
2022-11-16T12:29:04.999Z,15.35
2022-11-16T12:31:53.956Z,15.37
2022-11-16T12:34:33.942Z,15.54
2022-11-16T12:37:09.416Z,15.75
2022-11-16T12:39:44.118Z,15.73
2022-11-16T12:42:26.690Z,15.66
2022-11-16T12:45:19.036Z,15.67
2022-11-16T12:48:04.633Z,15.59
2022-11-16T12:50:45.550Z,15.58
2022-11-16T12:53:34.618Z,15.59
2022-11-16T12:56:10.533Z,15.71
2022-11-16T12:58:54.188Z,15.77
2022-11-16T13:01:26.149Z,15.65
2022-11-16T13:04:00.944Z,15.68
2022-11-16T13:06:33.100Z,15.69
2022-11-16T13:09:07.745Z,15.66
2022-11-16T13:11:39.223Z,15.64
2022-11-16T13:14:12.662Z,15.71
2022-11-16T13:16:40.714Z,15.82
2022-11-16T13:19:14.348Z,15.82
2022-11-16T13:21:50.793Z,15.98
2022-11-16T13:24:33.544Z,15.83
2022-11-16T13:27:14.344Z,15.86
2022-11-16T13:29:46.938Z,15.86
2022-11-16T13:32:20.648Z,15.80
2022-11-16T13:34:51.145Z,15.65
2022-11-16T13:37:47.214Z,15.59
2022-11-16T13:40:24.458Z,15.49
2022-11-16T13:43:08.293Z,15.43
2022-11-16T13:45:41.792Z,15.40
2022-11-16T13:48:18.731Z,15.33
2022-11-16T13:50:54.104Z,15.27
2022-11-16T13:54:25.065Z,15.21
2022-11-16T13:56:24.190Z,15.20
2022-11-16T13:58:56.338Z,15.22
2022-11-16T14:01:24.439Z,15.26
2022-11-16T14:03:53.471Z,15.13
2022-11-16T14:07:00.755Z,14.99
2022-11-16T14:09:52.574Z,15.02
2022-11-16T14:12:59.489Z,14.99
2022-11-16T14:15:33.328Z,15.00
2022-11-16T14:18:23.812Z,14.89
2022-11-16T14:20:57.586Z,14.85
2022-11-16T14:23:35.937Z,14.85
2022-11-16T14:26:18.800Z,14.88
2022-11-16T14:28:59.781Z,14.87
2022-11-16T14:31:30.493Z,14.86
2022-11-16T14:34:02.484Z,14.95
2022-11-16T14:36:40.945Z,15.03
2022-11-16T14:39:30.686Z,15.09
2022-11-16T14:42:01.634Z,15.01
2022-11-16T14:44:33.288Z,15.02
2022-11-16T14:47:03.531Z,15.05
2022-11-16T14:49:34.826Z,15.02
2022-11-16T14:52:04.555Z,14.99
2022-11-16T14:54:40.002Z,14.95
2022-11-16T14:57:13.957Z,14.92
2022-11-16T14:59:41.623Z,14.78
2022-11-16T15:02:20.168Z,14.78
2022-11-16T15:04:49.087Z,14.66
2022-11-16T15:07:18.494Z,14.58
2022-11-16T15:09:51.385Z,14.53
2022-11-16T15:12:39.161Z,14.47
2022-11-16T15:15:14.325Z,14.40
2022-11-16T15:17:44.207Z,14.35
2022-11-16T15:20:20.872Z,14.34
2022-11-16T15:22:51.591Z,14.25
2022-11-16T15:25:30.558Z,14.22
2022-11-16T15:28:00.457Z,14.15
2022-11-16T15:30:30.960Z,14.11
2022-11-16T15:32:58.624Z,14.08
2022-11-16T15:35:30.785Z,14.01
2022-11-16T15:38:03.497Z,13.98
2022-11-16T15:40:33.981Z,13.97
2022-11-16T15:43:05.043Z,13.94
2022-11-16T15:45:33.685Z,13.94
2022-11-16T15:48:04.851Z,13.92
2022-11-16T15:50:32.720Z,13.91
2022-11-16T15:53:00.372Z,13.86
2022-11-16T15:55:34.814Z,13.84
2022-11-16T15:58:06.180Z,13.83
2022-11-16T16:00:36.647Z,13.76
2022-11-16T16:03:08.637Z,13.73
2022-11-16T16:05:39.269Z,13.70
2022-11-16T16:08:24.697Z,13.65
2022-11-16T16:11:04.851Z,13.58
2022-11-16T16:13:35.813Z,13.53
2022-11-16T16:16:29.739Z,13.50
2022-11-16T16:19:05.097Z,13.46
2022-11-16T16:21:47.478Z,13.44
2022-11-16T16:24:41.116Z,13.38
2022-11-16T16:27:16.054Z,13.39
2022-11-16T16:29:43.782Z,13.40
2022-11-16T16:32:21.943Z,13.38
2022-11-16T16:34:50.265Z,13.37
2022-11-16T16:37:17.912Z,13.33
2022-11-16T16:39:45.602Z,13.28
2022-11-16T16:42:16.304Z,13.28
2022-11-16T16:44:45.520Z,13.24
2022-11-16T16:47:13.796Z,13.22
2022-11-16T16:49:41.782Z,13.26
2022-11-16T16:52:12.799Z,13.27
2022-11-16T16:54:40.706Z,13.30
2022-11-16T16:57:17.082Z,13.36
2022-11-16T16:59:48.036Z,13.40
2022-11-16T17:02:16.086Z,13.42
2022-11-16T17:04:46.452Z,13.44
2022-11-16T17:07:14.160Z,13.49
2022-11-16T17:09:42.210Z,13.50
2022-11-16T17:12:10.798Z,13.52
2022-11-16T17:14:39.789Z,13.49
2022-11-16T17:17:07.460Z,13.52
2022-11-16T17:19:35.091Z,13.50
2022-11-16T17:22:02.770Z,13.49
2022-11-16T17:24:30.628Z,13.51
2022-11-16T17:26:58.283Z,13.48
2022-11-16T17:29:25.895Z,13.50
2022-11-16T17:31:54.964Z,13.52
2022-11-16T17:34:22.610Z,13.50
2022-11-16T17:36:50.344Z,13.45
2022-11-16T17:39:19.091Z,13.45
2022-11-16T17:41:46.733Z,13.40
2022-11-16T17:44:20.144Z,13.43
2022-11-16T17:46:49.149Z,13.41
2022-11-16T17:49:18.152Z,13.45
2022-11-16T17:51:45.764Z,13.43
2022-11-16T17:54:13.385Z,13.43
2022-11-16T17:56:41.018Z,13.40
2022-11-16T17:59:08.681Z,13.39
2022-11-16T18:01:36.700Z,13.41
2022-11-16T18:04:04.648Z,13.39
2022-11-16T18:06:35.078Z,13.40
2022-11-16T18:09:02.945Z,13.42
2022-11-16T18:11:30.737Z,13.44
2022-11-16T18:14:00.522Z,13.43
2022-11-16T18:16:31.590Z,13.43
2022-11-16T18:19:01.058Z,13.44
2022-11-16T18:21:29.244Z,13.43
2022-11-16T18:24:02.985Z,13.43
2022-11-16T18:26:30.742Z,13.43
2022-11-16T18:28:58.386Z,13.40
2022-11-16T18:31:26.345Z,13.42
2022-11-16T18:33:54.204Z,13.41
2022-11-16T18:36:23.022Z,13.38
2022-11-16T18:38:50.887Z,13.35
2022-11-16T18:41:21.808Z,13.34
2022-11-16T18:43:51.412Z,13.33
2022-11-16T18:46:19.602Z,13.31
2022-11-16T18:48:47.634Z,13.28
2022-11-16T18:51:16.623Z,13.24
2022-11-16T18:53:44.391Z,13.24
2022-11-16T18:56:12.422Z,13.24
2022-11-16T18:58:50.907Z,13.20
2022-11-16T19:01:21.754Z,13.22
2022-11-16T19:03:49.595Z,13.20
2022-11-16T19:06:17.987Z,13.16
2022-11-16T19:08:52.106Z,13.17
2022-11-16T19:11:21.673Z,13.18
2022-11-16T19:13:53.971Z,13.13
2022-11-16T19:16:22.548Z,13.11
2022-11-16T19:18:50.321Z,13.04
2022-11-16T19:21:19.325Z,13.03
2022-11-16T19:23:48.655Z,13.04
2022-11-16T19:26:18.497Z,12.98
2022-11-16T19:28:47.995Z,13.01
2022-11-16T19:31:19.420Z,12.99
2022-11-16T19:33:47.697Z,13.01
2022-11-16T19:36:17.057Z,13.08
2022-11-16T19:38:46.386Z,13.00
2022-11-16T19:41:15.931Z,12.98
2022-11-16T19:43:44.070Z,13.01
2022-11-16T19:46:16.440Z,13.04
2022-11-16T19:48:46.882Z,13.08
2022-11-16T19:51:17.010Z,13.07
2022-11-16T19:53:45.437Z,13.14
2022-11-16T19:56:15.434Z,13.05
2022-11-16T19:58:43.636Z,13.01
2022-11-16T20:01:13.363Z,12.96
2022-11-16T20:03:42.208Z,12.96
2022-11-16T20:06:13.114Z,12.94
2022-11-16T20:08:42.370Z,12.92
2022-11-16T20:11:13.973Z,12.92
2022-11-16T20:13:41.993Z,12.91
2022-11-16T20:16:10.892Z,12.87
2022-11-16T20:18:38.761Z,12.85
2022-11-16T20:21:07.259Z,12.86
2022-11-16T20:23:37.532Z,12.77
2022-11-16T20:26:06.488Z,12.79
2022-11-16T20:28:37.620Z,12.81
2022-11-16T20:31:08.651Z,12.81
2022-11-16T20:33:36.746Z,12.82
2022-11-16T20:36:06.790Z,12.78
2022-11-16T20:38:35.922Z,12.84
2022-11-16T20:41:12.028Z,12.83
2022-11-16T20:43:40.304Z,12.80
2022-11-16T20:46:08.376Z,12.75
2022-11-16T20:48:36.529Z,12.84
2022-11-16T20:51:04.498Z,12.74
2022-11-16T20:53:32.788Z,12.69
2022-11-16T20:56:03.029Z,12.68
2022-11-16T20:58:31.108Z,12.66
2022-11-16T21:01:01.162Z,12.62
2022-11-16T21:03:28.947Z,12.64
2022-11-16T21:05:56.751Z,12.66
2022-11-16T21:08:27.080Z,12.68
2022-11-16T21:10:54.910Z,12.68
2022-11-16T21:13:42.358Z,12.67
2022-11-16T21:16:12.360Z,12.64
2022-11-16T21:18:40.638Z,12.63
2022-11-16T21:21:11.063Z,12.65
2022-11-16T21:23:40.939Z,12.70
2022-11-16T21:26:12.729Z,12.71
2022-11-16T21:28:44.558Z,12.72
2022-11-16T21:31:14.048Z,12.75
2022-11-16T21:33:41.749Z,12.73
2022-11-16T21:36:12.474Z,12.79
2022-11-16T21:38:40.525Z,12.75
2022-11-16T21:41:08.784Z,12.76
2022-11-16T21:43:37.234Z,12.77
2022-11-16T21:46:08.338Z,12.78
2022-11-16T21:48:36.940Z,12.70
2022-11-16T21:51:06.276Z,12.76
2022-11-16T21:53:34.687Z,12.79
2022-11-16T21:56:02.675Z,12.87
2022-11-16T21:58:30.263Z,12.86
2022-11-16T22:00:59.383Z,12.84
2022-11-16T22:03:30.194Z,12.83
2022-11-16T22:06:17.538Z,12.81
2022-11-16T22:08:45.237Z,12.74
2022-11-16T22:11:13.604Z,12.76
2022-11-16T22:13:41.679Z,12.75
2022-11-16T22:16:10.939Z,12.77
2022-11-16T22:18:40.553Z,12.70
2022-11-16T22:21:08.733Z,12.73
2022-11-16T22:23:37.449Z,12.73
2022-11-16T22:26:07.554Z,12.72
2022-11-16T22:28:36.194Z,12.71
2022-11-16T22:31:05.315Z,12.78
2022-11-16T22:33:34.576Z,12.66
2022-11-16T22:36:04.139Z,12.64
2022-11-16T22:38:32.401Z,12.63
2022-11-16T22:40:59.999Z,12.64
2022-11-16T22:43:29.074Z,12.63
2022-11-16T22:46:00.640Z,12.63
2022-11-16T22:48:32.479Z,12.61
2022-11-16T22:51:06.844Z,12.65
2022-11-16T22:53:35.303Z,12.64
2022-11-16T22:56:08.108Z,12.65
2022-11-16T22:58:36.120Z,12.68
2022-11-16T23:01:04.150Z,12.69
2022-11-16T23:03:32.404Z,12.67
2022-11-16T23:06:00.604Z,12.65
2022-11-16T23:08:29.647Z,12.60
2022-11-16T23:11:19.134Z,12.66
2022-11-16T23:14:04.414Z,12.58
2022-11-16T23:16:32.104Z,12.57
2022-11-16T23:19:00.192Z,12.62
2022-11-16T23:21:45.527Z,12.61
2022-11-16T23:24:33.805Z,12.50
2022-11-16T23:27:21.233Z,12.55
2022-11-16T23:29:49.090Z,12.52
2022-11-16T23:32:16.754Z,12.58
2022-11-16T23:34:44.408Z,12.60
2022-11-16T23:37:11.992Z,12.57
2022-11-16T23:39:41.049Z,12.57
2022-11-16T23:42:26.659Z,12.56
2022-11-16T23:44:54.415Z,12.51
2022-11-16T23:47:22.277Z,12.51
2022-11-16T23:49:50.221Z,12.48
2022-11-16T23:52:17.885Z,12.47
2022-11-16T23:54:46.948Z,12.41
2022-11-16T23:57:14.639Z,12.40
2022-11-16T23:59:42.299Z,12.39
